sensor_id;sensor_type;location;lat;lon;timestamp;P1;durP1;ratioP1;P2;durP2;ratioP2
1925;SDS011;964;42.606;23.588;2023-09-12T00:00:03;2.83;;;2.53;;
1925;SDS011;964;42.606;23.588;2023-09-12T00:02:30;3.70;;;2.77;;
1925;SDS011;964;42.606;23.588;2023-09-12T00:04:57;7.23;;;2.57;;
1925;SDS011;964;42.606;23.588;2023-09-12T00:07:24;2.67;;;2.37;;
1925;SDS011;964;42.606;23.588;2023-09-12T00:09:50;2.77;;;2.00;;
1925;SDS011;964;42.606;23.588;2023-09-12T00:12:21;7.10;;;2.20;;
1925;SDS011;964;42.606;23.588;2023-09-12T00:14:49;2.20;;;1.80;;
1925;SDS011;964;42.606;23.588;2023-09-12T00:17:16;4.93;;;2.50;;
1925;SDS011;964;42.606;23.588;2023-09-12T00:19:43;2.83;;;2.23;;
1925;SDS011;964;42.606;23.588;2023-09-12T00:22:10;4.53;;;2.55;;
1925;SDS011;964;42.606;23.588;2023-09-12T00:24:37;3.90;;;2.47;;
1925;SDS011;964;42.606;23.588;2023-09-12T00:27:04;4.17;;;2.73;;
1925;SDS011;964;42.606;23.588;2023-09-12T00:29:32;3.20;;;2.33;;
1925;SDS011;964;42.606;23.588;2023-09-12T00:31:59;4.73;;;2.30;;
1925;SDS011;964;42.606;23.588;2023-09-12T00:34:26;3.47;;;2.53;;
1925;SDS011;964;42.606;23.588;2023-09-12T00:36:52;4.23;;;2.50;;
1925;SDS011;964;42.606;23.588;2023-09-12T00:39:19;4.27;;;2.23;;
1925;SDS011;964;42.606;23.588;2023-09-12T00:41:46;3.10;;;2.17;;
1925;SDS011;964;42.606;23.588;2023-09-12T00:44:12;2.77;;;2.30;;
1925;SDS011;964;42.606;23.588;2023-09-12T00:46:40;3.23;;;2.37;;
1925;SDS011;964;42.606;23.588;2023-09-12T00:49:08;3.63;;;2.30;;
1925;SDS011;964;42.606;23.588;2023-09-12T00:51:35;6.13;;;2.00;;
1925;SDS011;964;42.606;23.588;2023-09-12T00:54:02;3.70;;;2.50;;
1925;SDS011;964;42.606;23.588;2023-09-12T00:56:29;2.93;;;2.53;;
1925;SDS011;964;42.606;23.588;2023-09-12T00:58:56;2.50;;;2.30;;
1925;SDS011;964;42.606;23.588;2023-09-12T01:01:24;2.73;;;2.50;;
1925;SDS011;964;42.606;23.588;2023-09-12T01:03:52;2.83;;;2.20;;
1925;SDS011;964;42.606;23.588;2023-09-12T01:06:19;2.90;;;2.37;;
1925;SDS011;964;42.606;23.588;2023-09-12T01:08:48;2.90;;;2.33;;
1925;SDS011;964;42.606;23.588;2023-09-12T01:11:15;3.83;;;2.60;;
1925;SDS011;964;42.606;23.588;2023-09-12T01:13:43;5.20;;;2.67;;
1925;SDS011;964;42.606;23.588;2023-09-12T01:16:10;4.33;;;2.43;;
1925;SDS011;964;42.606;23.588;2023-09-12T01:18:36;2.60;;;2.30;;
1925;SDS011;964;42.606;23.588;2023-09-12T01:21:15;2.87;;;2.50;;
1925;SDS011;964;42.606;23.588;2023-09-12T01:24:04;3.30;;;2.40;;
1925;SDS011;964;42.606;23.588;2023-09-12T01:26:51;2.90;;;2.60;;
1925;SDS011;964;42.606;23.588;2023-09-12T01:29:27;4.27;;;2.27;;
1925;SDS011;964;42.606;23.588;2023-09-12T01:31:55;3.03;;;2.73;;
1925;SDS011;964;42.606;23.588;2023-09-12T01:34:23;4.00;;;2.70;;
1925;SDS011;964;42.606;23.588;2023-09-12T01:36:50;3.07;;;2.70;;
1925;SDS011;964;42.606;23.588;2023-09-12T01:39:16;3.10;;;2.20;;
1925;SDS011;964;42.606;23.588;2023-09-12T01:41:43;2.50;;;2.30;;
1925;SDS011;964;42.606;23.588;2023-09-12T01:44:13;3.23;;;2.50;;
1925;SDS011;964;42.606;23.588;2023-09-12T01:46:42;2.40;;;2.20;;
1925;SDS011;964;42.606;23.588;2023-09-12T01:49:09;4.53;;;2.43;;
1925;SDS011;964;42.606;23.588;2023-09-12T01:51:38;4.20;;;2.33;;
1925;SDS011;964;42.606;23.588;2023-09-12T01:54:05;3.87;;;2.03;;
1925;SDS011;964;42.606;23.588;2023-09-12T01:56:33;3.73;;;1.90;;
1925;SDS011;964;42.606;23.588;2023-09-12T01:59:01;1.77;;;1.67;;
1925;SDS011;964;42.606;23.588;2023-09-12T02:01:29;2.80;;;2.30;;
1925;SDS011;964;42.606;23.588;2023-09-12T02:03:57;17.17;;;3.13;;
1925;SDS011;964;42.606;23.588;2023-09-12T02:06:23;3.87;;;2.47;;
1925;SDS011;964;42.606;23.588;2023-09-12T02:08:50;6.27;;;2.43;;
1925;SDS011;964;42.606;23.588;2023-09-12T02:11:17;3.30;;;1.90;;
1925;SDS011;964;42.606;23.588;2023-09-12T02:13:43;3.10;;;1.90;;
1925;SDS011;964;42.606;23.588;2023-09-12T02:16:10;2.43;;;2.23;;
1925;SDS011;964;42.606;23.588;2023-09-12T02:18:36;4.83;;;2.03;;
1925;SDS011;964;42.606;23.588;2023-09-12T02:21:04;3.87;;;2.40;;
1925;SDS011;964;42.606;23.588;2023-09-12T02:23:31;2.43;;;2.13;;
1925;SDS011;964;42.606;23.588;2023-09-12T02:26:00;2.70;;;2.27;;
1925;SDS011;964;42.606;23.588;2023-09-12T02:28:26;6.00;;;2.53;;
1925;SDS011;964;42.606;23.588;2023-09-12T02:30:53;7.50;;;2.67;;
1925;SDS011;964;42.606;23.588;2023-09-12T02:33:20;5.93;;;2.70;;
1925;SDS011;964;42.606;23.588;2023-09-12T02:35:46;2.83;;;2.57;;
1925;SDS011;964;42.606;23.588;2023-09-12T02:38:14;7.53;;;3.43;;
1925;SDS011;964;42.606;23.588;2023-09-12T02:40:42;4.30;;;2.90;;
1925;SDS011;964;42.606;23.588;2023-09-12T02:43:08;8.33;;;2.30;;
1925;SDS011;964;42.606;23.588;2023-09-12T02:45:35;3.03;;;2.40;;
1925;SDS011;964;42.606;23.588;2023-09-12T02:48:02;3.07;;;2.60;;
1925;SDS011;964;42.606;23.588;2023-09-12T02:50:29;2.60;;;2.40;;
1925;SDS011;964;42.606;23.588;2023-09-12T02:52:56;5.63;;;2.70;;
1925;SDS011;964;42.606;23.588;2023-09-12T02:55:24;4.43;;;2.30;;
1925;SDS011;964;42.606;23.588;2023-09-12T02:57:50;5.67;;;3.17;;
1925;SDS011;964;42.606;23.588;2023-09-12T03:00:17;7.17;;;2.60;;
1925;SDS011;964;42.606;23.588;2023-09-12T03:02:45;3.13;;;2.70;;
1925;SDS011;964;42.606;23.588;2023-09-12T03:05:12;3.77;;;2.73;;
1925;SDS011;964;42.606;23.588;2023-09-12T03:07:38;4.67;;;2.87;;
1925;SDS011;964;42.606;23.588;2023-09-12T03:10:05;4.53;;;2.73;;
1925;SDS011;964;42.606;23.588;2023-09-12T03:12:34;3.53;;;2.60;;
1925;SDS011;964;42.606;23.588;2023-09-12T03:15:02;4.73;;;3.07;;
1925;SDS011;964;42.606;23.588;2023-09-12T03:17:29;6.73;;;2.77;;
1925;SDS011;964;42.606;23.588;2023-09-12T03:19:55;3.13;;;2.37;;
1925;SDS011;964;42.606;23.588;2023-09-12T03:22:22;4.13;;;2.47;;
1925;SDS011;964;42.606;23.588;2023-09-12T03:24:49;4.50;;;2.73;;
1925;SDS011;964;42.606;23.588;2023-09-12T03:27:16;13.13;;;3.60;;
1925;SDS011;964;42.606;23.588;2023-09-12T03:29:45;8.93;;;2.73;;
1925;SDS011;964;42.606;23.588;2023-09-12T03:32:13;2.60;;;2.40;;
1925;SDS011;964;42.606;23.588;2023-09-12T03:34:40;3.53;;;2.50;;
1925;SDS011;964;42.606;23.588;2023-09-12T03:37:06;3.37;;;2.07;;
1925;SDS011;964;42.606;23.588;2023-09-12T03:39:34;4.10;;;2.90;;
1925;SDS011;964;42.606;23.588;2023-09-12T03:42:00;4.57;;;2.57;;
1925;SDS011;964;42.606;23.588;2023-09-12T03:44:27;3.10;;;2.33;;
1925;SDS011;964;42.606;23.588;2023-09-12T03:46:55;9.70;;;3.20;;
1925;SDS011;964;42.606;23.588;2023-09-12T03:49:23;8.63;;;3.33;;
1925;SDS011;964;42.606;23.588;2023-09-12T03:51:49;6.00;;;3.10;;
1925;SDS011;964;42.606;23.588;2023-09-12T03:54:16;8.17;;;3.43;;
1925;SDS011;964;42.606;23.588;2023-09-12T03:56:42;9.07;;;3.77;;
1925;SDS011;964;42.606;23.588;2023-09-12T03:59:09;14.20;;;3.70;;
1925;SDS011;964;42.606;23.588;2023-09-12T04:01:37;11.03;;;3.97;;
1925;SDS011;964;42.606;23.588;2023-09-12T04:04:05;4.10;;;2.93;;
1925;SDS011;964;42.606;23.588;2023-09-12T04:06:31;4.97;;;3.50;;
1925;SDS011;964;42.606;23.588;2023-09-12T04:08:58;6.10;;;3.20;;
1925;SDS011;964;42.606;23.588;2023-09-12T04:11:25;7.80;;;3.40;;
1925;SDS011;964;42.606;23.588;2023-09-12T04:13:51;11.97;;;3.83;;
1925;SDS011;964;42.606;23.588;2023-09-12T04:16:18;12.57;;;4.07;;
1925;SDS011;964;42.606;23.588;2023-09-12T04:18:44;5.20;;;3.70;;
1925;SDS011;964;42.606;23.588;2023-09-12T04:21:12;7.00;;;3.90;;
1925;SDS011;964;42.606;23.588;2023-09-12T04:23:39;10.47;;;4.20;;
1925;SDS011;964;42.606;23.588;2023-09-12T04:26:06;3.83;;;3.00;;
1925;SDS011;964;42.606;23.588;2023-09-12T04:28:32;10.10;;;3.50;;
1925;SDS011;964;42.606;23.588;2023-09-12T04:31:02;15.53;;;3.97;;
1925;SDS011;964;42.606;23.588;2023-09-12T04:33:29;9.90;;;3.80;;
1925;SDS011;964;42.606;23.588;2023-09-12T04:35:57;14.97;;;4.03;;
1925;SDS011;964;42.606;23.588;2023-09-12T04:38:25;15.93;;;4.67;;
1925;SDS011;964;42.606;23.588;2023-09-12T04:40:53;7.70;;;4.50;;
1925;SDS011;964;42.606;23.588;2023-09-12T04:43:20;21.90;;;5.10;;
1925;SDS011;964;42.606;23.588;2023-09-12T04:45:46;16.17;;;4.60;;
1925;SDS011;964;42.606;23.588;2023-09-12T04:48:14;8.93;;;3.90;;
1925;SDS011;964;42.606;23.588;2023-09-12T04:50:40;12.40;;;4.33;;
1925;SDS011;964;42.606;23.588;2023-09-12T04:53:07;12.10;;;3.30;;
1925;SDS011;964;42.606;23.588;2023-09-12T04:55:36;3.47;;;3.17;;
1925;SDS011;964;42.606;23.588;2023-09-12T04:58:03;9.87;;;3.90;;
1925;SDS011;964;42.606;23.588;2023-09-12T05:00:31;4.40;;;3.20;;
1925;SDS011;964;42.606;23.588;2023-09-12T05:02:58;4.20;;;2.67;;
1925;SDS011;964;42.606;23.588;2023-09-12T05:05:25;6.50;;;3.53;;
1925;SDS011;964;42.606;23.588;2023-09-12T05:07:51;4.90;;;2.80;;
1925;SDS011;964;42.606;23.588;2023-09-12T05:10:18;7.63;;;2.90;;
1925;SDS011;964;42.606;23.588;2023-09-12T05:12:46;9.63;;;3.63;;
1925;SDS011;964;42.606;23.588;2023-09-12T05:15:13;6.83;;;3.10;;
1925;SDS011;964;42.606;23.588;2023-09-12T05:17:39;6.60;;;3.30;;
1925;SDS011;964;42.606;23.588;2023-09-12T05:20:07;4.17;;;3.30;;
1925;SDS011;964;42.606;23.588;2023-09-12T05:22:34;17.07;;;4.53;;
1925;SDS011;964;42.606;23.588;2023-09-12T05:25:01;9.63;;;4.13;;
1925;SDS011;964;42.606;23.588;2023-09-12T05:27:27;6.03;;;3.97;;
1925;SDS011;964;42.606;23.588;2023-09-12T05:29:56;7.03;;;3.77;;
1925;SDS011;964;42.606;23.588;2023-09-12T05:32:22;4.07;;;3.50;;
1925;SDS011;964;42.606;23.588;2023-09-12T05:34:49;6.07;;;3.77;;
1925;SDS011;964;42.606;23.588;2023-09-12T05:37:15;5.17;;;3.40;;
1925;SDS011;964;42.606;23.588;2023-09-12T05:39:42;4.83;;;3.43;;
1925;SDS011;964;42.606;23.588;2023-09-12T05:42:09;4.37;;;3.33;;
1925;SDS011;964;42.606;23.588;2023-09-12T05:44:35;5.83;;;3.80;;
1925;SDS011;964;42.606;23.588;2023-09-12T05:47:03;5.33;;;3.43;;
1925;SDS011;964;42.606;23.588;2023-09-12T05:49:31;5.73;;;3.80;;
1925;SDS011;964;42.606;23.588;2023-09-12T05:51:59;5.77;;;4.63;;
1925;SDS011;964;42.606;23.588;2023-09-12T05:54:25;4.23;;;3.83;;
1925;SDS011;964;42.606;23.588;2023-09-12T05:56:52;6.73;;;3.47;;
1925;SDS011;964;42.606;23.588;2023-09-12T05:59:19;4.30;;;3.87;;
1925;SDS011;964;42.606;23.588;2023-09-12T06:01:45;3.50;;;3.20;;
1925;SDS011;964;42.606;23.588;2023-09-12T06:04:13;5.17;;;3.50;;
1925;SDS011;964;42.606;23.588;2023-09-12T06:06:40;3.47;;;3.17;;
1925;SDS011;964;42.606;23.588;2023-09-12T06:09:07;20.13;;;4.80;;
1925;SDS011;964;42.606;23.588;2023-09-12T06:11:34;5.70;;;3.43;;
1925;SDS011;964;42.606;23.588;2023-09-12T06:14:01;5.47;;;4.30;;
1925;SDS011;964;42.606;23.588;2023-09-12T06:16:27;5.03;;;4.07;;
1925;SDS011;964;42.606;23.588;2023-09-12T06:18:54;6.10;;;3.50;;
1925;SDS011;964;42.606;23.588;2023-09-12T06:21:22;7.97;;;4.07;;
1925;SDS011;964;42.606;23.588;2023-09-12T06:26:35;8.10;;;3.60;;
1925;SDS011;964;42.606;23.588;2023-09-12T06:29:02;9.67;;;3.93;;
1925;SDS011;964;42.606;23.588;2023-09-12T06:31:28;5.00;;;3.97;;
1925;SDS011;964;42.606;23.588;2023-09-12T06:33:55;4.60;;;4.10;;
1925;SDS011;964;42.606;23.588;2023-09-12T06:36:24;4.73;;;4.03;;
1925;SDS011;964;42.606;23.588;2023-09-12T06:38:50;7.07;;;4.40;;
1925;SDS011;964;42.606;23.588;2023-09-12T06:41:18;9.63;;;4.23;;
1925;SDS011;964;42.606;23.588;2023-09-12T06:43:45;5.10;;;3.73;;
1925;SDS011;964;42.606;23.588;2023-09-12T06:46:12;7.40;;;3.90;;
1925;SDS011;964;42.606;23.588;2023-09-12T06:48:39;8.10;;;4.40;;
1925;SDS011;964;42.606;23.588;2023-09-12T06:51:07;6.60;;;4.07;;
1925;SDS011;964;42.606;23.588;2023-09-12T06:53:36;14.10;;;4.60;;
1925;SDS011;964;42.606;23.588;2023-09-12T06:56:03;6.77;;;3.87;;
1925;SDS011;964;42.606;23.588;2023-09-12T06:58:30;10.67;;;4.07;;
1925;SDS011;964;42.606;23.588;2023-09-12T07:01:00;11.80;;;4.40;;
1925;SDS011;964;42.606;23.588;2023-09-12T07:03:28;7.80;;;3.80;;
1925;SDS011;964;42.606;23.588;2023-09-12T07:05:55;9.30;;;4.00;;
1925;SDS011;964;42.606;23.588;2023-09-12T07:08:22;11.37;;;4.23;;
1925;SDS011;964;42.606;23.588;2023-09-12T07:10:50;5.00;;;3.60;;
1925;SDS011;964;42.606;23.588;2023-09-12T07:13:19;5.73;;;3.70;;
1925;SDS011;964;42.606;23.588;2023-09-12T07:15:45;12.40;;;4.93;;
1925;SDS011;964;42.606;23.588;2023-09-12T07:18:12;7.20;;;3.30;;
1925;SDS011;964;42.606;23.588;2023-09-12T07:20:40;8.73;;;3.90;;
1925;SDS011;964;42.606;23.588;2023-09-12T07:23:07;4.93;;;3.20;;
1925;SDS011;964;42.606;23.588;2023-09-12T07:25:35;14.03;;;3.30;;
1925;SDS011;964;42.606;23.588;2023-09-12T07:28:06;8.87;;;3.27;;
1925;SDS011;964;42.606;23.588;2023-09-12T07:30:32;5.10;;;3.00;;
1925;SDS011;964;42.606;23.588;2023-09-12T07:32:59;5.47;;;3.87;;
1925;SDS011;964;42.606;23.588;2023-09-12T07:35:26;5.37;;;3.03;;
1925;SDS011;964;42.606;23.588;2023-09-12T07:37:52;4.83;;;2.97;;
1925;SDS011;964;42.606;23.588;2023-09-12T07:40:19;6.57;;;2.90;;
1925;SDS011;964;42.606;23.588;2023-09-12T07:42:45;4.80;;;3.10;;
1925;SDS011;964;42.606;23.588;2023-09-12T07:45:13;8.40;;;3.30;;
1925;SDS011;964;42.606;23.588;2023-09-12T07:47:40;7.80;;;3.17;;
1925;SDS011;964;42.606;23.588;2023-09-12T07:50:07;4.73;;;2.80;;
1925;SDS011;964;42.606;23.588;2023-09-12T07:52:34;6.03;;;3.33;;
1925;SDS011;964;42.606;23.588;2023-09-12T07:55:00;4.77;;;3.63;;
1925;SDS011;964;42.606;23.588;2023-09-12T07:57:28;4.30;;;2.70;;
1925;SDS011;964;42.606;23.588;2023-09-12T07:59:55;3.60;;;2.77;;
1925;SDS011;964;42.606;23.588;2023-09-12T08:02:23;7.23;;;3.20;;
1925;SDS011;964;42.606;23.588;2023-09-12T08:04:50;4.77;;;3.00;;
1925;SDS011;964;42.606;23.588;2023-09-12T08:07:18;3.40;;;2.90;;
1925;SDS011;964;42.606;23.588;2023-09-12T08:09:48;6.10;;;3.00;;
1925;SDS011;964;42.606;23.588;2023-09-12T08:12:16;18.63;;;3.67;;
1925;SDS011;964;42.606;23.588;2023-09-12T08:14:42;4.40;;;3.20;;
1925;SDS011;964;42.606;23.588;2023-09-12T08:17:10;3.60;;;2.50;;
1925;SDS011;964;42.606;23.588;2023-09-12T08:19:38;2.80;;;2.50;;
1925;SDS011;964;42.606;23.588;2023-09-12T08:22:06;4.17;;;2.67;;
1925;SDS011;964;42.606;23.588;2023-09-12T08:24:33;6.73;;;2.80;;
1925;SDS011;964;42.606;23.588;2023-09-12T08:27:00;2.80;;;2.23;;
1925;SDS011;964;42.606;23.588;2023-09-12T08:29:27;2.60;;;2.37;;
1925;SDS011;964;42.606;23.588;2023-09-12T08:31:55;3.23;;;2.10;;
1925;SDS011;964;42.606;23.588;2023-09-12T08:34:21;3.50;;;2.20;;
1925;SDS011;964;42.606;23.588;2023-09-12T08:36:49;4.80;;;2.77;;
1925;SDS011;964;42.606;23.588;2023-09-12T08:39:18;2.87;;;2.57;;
1925;SDS011;964;42.606;23.588;2023-09-12T08:41:49;2.70;;;2.50;;
1925;SDS011;964;42.606;23.588;2023-09-12T08:44:16;2.80;;;2.40;;
1925;SDS011;964;42.606;23.588;2023-09-12T08:46:44;2.73;;;2.53;;
1925;SDS011;964;42.606;23.588;2023-09-12T08:49:11;4.40;;;3.70;;
1925;SDS011;964;42.606;23.588;2023-09-12T08:51:38;2.30;;;2.20;;
1925;SDS011;964;42.606;23.588;2023-09-12T08:54:07;2.90;;;2.60;;
1925;SDS011;964;42.606;23.588;2023-09-12T08:56:35;3.40;;;2.77;;
1925;SDS011;964;42.606;23.588;2023-09-12T08:59:05;2.77;;;2.43;;
1925;SDS011;964;42.606;23.588;2023-09-12T09:01:33;5.43;;;2.50;;
1925;SDS011;964;42.606;23.588;2023-09-12T09:04:01;4.60;;;2.40;;
1925;SDS011;964;42.606;23.588;2023-09-12T09:06:29;2.70;;;2.50;;
1925;SDS011;964;42.606;23.588;2023-09-12T09:08:57;3.20;;;2.40;;
1925;SDS011;964;42.606;23.588;2023-09-12T09:11:26;2.50;;;2.30;;
1925;SDS011;964;42.606;23.588;2023-09-12T09:13:54;2.87;;;2.33;;
1925;SDS011;964;42.606;23.588;2023-09-12T09:16:21;3.00;;;2.63;;
1925;SDS011;964;42.606;23.588;2023-09-12T09:18:49;3.03;;;2.37;;
1925;SDS011;964;42.606;23.588;2023-09-12T09:21:17;4.23;;;2.47;;
1925;SDS011;964;42.606;23.588;2023-09-12T09:23:45;2.60;;;2.40;;
1925;SDS011;964;42.606;23.588;2023-09-12T09:26:12;3.67;;;2.50;;
1925;SDS011;964;42.606;23.588;2023-09-12T09:28:41;5.83;;;2.30;;
1925;SDS011;964;42.606;23.588;2023-09-12T09:31:10;3.43;;;2.60;;
1925;SDS011;964;42.606;23.588;2023-09-12T09:33:37;3.57;;;2.70;;
1925;SDS011;964;42.606;23.588;2023-09-12T09:36:06;5.60;;;2.80;;
1925;SDS011;964;42.606;23.588;2023-09-12T09:38:33;4.70;;;2.40;;
1925;SDS011;964;42.606;23.588;2023-09-12T09:41:03;3.20;;;2.90;;
1925;SDS011;964;42.606;23.588;2023-09-12T09:43:31;3.50;;;2.77;;
1925;SDS011;964;42.606;23.588;2023-09-12T09:45:59;2.63;;;2.40;;
1925;SDS011;964;42.606;23.588;2023-09-12T09:48:26;4.30;;;2.60;;
1925;SDS011;964;42.606;23.588;2023-09-12T09:50:53;13.52;;;3.60;;
1925;SDS011;964;42.606;23.588;2023-09-12T09:53:27;5.15;;;2.92;;
1925;SDS011;964;42.606;23.588;2023-09-12T09:56:02;2.80;;;2.47;;
1925;SDS011;964;42.606;23.588;2023-09-12T09:58:33;5.70;;;2.87;;
1925;SDS011;964;42.606;23.588;2023-09-12T10:01:02;3.13;;;2.60;;
1925;SDS011;964;42.606;23.588;2023-09-12T10:03:34;5.22;;;2.60;;
1925;SDS011;964;42.606;23.588;2023-09-12T10:06:02;4.22;;;3.10;;
1925;SDS011;964;42.606;23.588;2023-09-12T10:08:31;3.90;;;2.42;;
1925;SDS011;964;42.606;23.588;2023-09-12T10:10:58;4.50;;;2.83;;
1925;SDS011;964;42.606;23.588;2023-09-12T10:13:26;3.83;;;2.80;;
1925;SDS011;964;42.606;23.588;2023-09-12T10:15:57;11.50;;;3.00;;
1925;SDS011;964;42.606;23.588;2023-09-12T10:18:28;4.65;;;2.35;;
1925;SDS011;964;42.606;23.588;2023-09-12T10:21:00;7.40;;;2.60;;
1925;SDS011;964;42.606;23.588;2023-09-12T10:23:34;5.53;;;2.90;;
1925;SDS011;964;42.606;23.588;2023-09-12T10:26:07;3.60;;;2.72;;
1925;SDS011;964;42.606;23.588;2023-09-12T10:28:37;4.13;;;2.70;;
1925;SDS011;964;42.606;23.588;2023-09-12T10:31:04;3.25;;;2.95;;
1925;SDS011;964;42.606;23.588;2023-09-12T10:33:34;6.07;;;2.65;;
1925;SDS011;964;42.606;23.588;2023-09-12T10:36:01;7.00;;;2.67;;
1925;SDS011;964;42.606;23.588;2023-09-12T10:38:30;2.70;;;2.40;;
1925;SDS011;964;42.606;23.588;2023-09-12T10:40:59;4.43;;;3.03;;
1925;SDS011;964;42.606;23.588;2023-09-12T10:43:28;3.75;;;2.50;;
1925;SDS011;964;42.606;23.588;2023-09-12T10:45:58;6.63;;;2.75;;
1925;SDS011;964;42.606;23.588;2023-09-12T10:48:28;4.25;;;3.05;;
1925;SDS011;964;42.606;23.588;2023-09-12T10:50:57;3.78;;;2.50;;
1925;SDS011;964;42.606;23.588;2023-09-12T10:53:24;4.72;;;3.30;;
1925;SDS011;964;42.606;23.588;2023-09-12T10:55:59;6.10;;;3.08;;
1925;SDS011;964;42.606;23.588;2023-09-12T10:58:27;3.15;;;2.92;;
1925;SDS011;964;42.606;23.588;2023-09-12T11:03:51;3.75;;;3.45;;
1925;SDS011;964;42.606;23.588;2023-09-12T11:06:22;3.00;;;2.70;;
1925;SDS011;964;42.606;23.588;2023-09-12T11:11:45;4.65;;;2.65;;
1925;SDS011;964;42.606;23.588;2023-09-12T11:14:12;2.58;;;2.38;;
1925;SDS011;964;42.606;23.588;2023-09-12T11:16:40;3.35;;;2.40;;
1925;SDS011;964;42.606;23.588;2023-09-12T11:19:14;3.85;;;2.83;;
1925;SDS011;964;42.606;23.588;2023-09-12T11:21:44;3.00;;;2.53;;
1925;SDS011;964;42.606;23.588;2023-09-12T11:24:11;2.78;;;2.42;;
1925;SDS011;964;42.606;23.588;2023-09-12T11:26:54;3.90;;;2.60;;
1925;SDS011;964;42.606;23.588;2023-09-12T11:29:22;3.22;;;2.92;;
1925;SDS011;964;42.606;23.588;2023-09-12T11:31:54;4.97;;;3.00;;
1925;SDS011;964;42.606;23.588;2023-09-12T11:34:23;4.78;;;2.78;;
1925;SDS011;964;42.606;23.588;2023-09-12T11:36:55;4.85;;;2.85;;
1925;SDS011;964;42.606;23.588;2023-09-12T11:39:25;2.85;;;2.63;;
1925;SDS011;964;42.606;23.588;2023-09-12T11:41:52;5.85;;;2.70;;
1925;SDS011;964;42.606;23.588;2023-09-12T11:44:19;3.75;;;3.10;;
1925;SDS011;964;42.606;23.588;2023-09-12T11:46:48;3.17;;;2.30;;
1925;SDS011;964;42.606;23.588;2023-09-12T11:49:16;3.22;;;2.92;;
1925;SDS011;964;42.606;23.588;2023-09-12T11:51:47;5.90;;;2.70;;
1925;SDS011;964;42.606;23.588;2023-09-12T11:54:16;33.08;;;7.55;;
1925;SDS011;964;42.606;23.588;2023-09-12T11:56:44;5.93;;;2.78;;
1925;SDS011;964;42.606;23.588;2023-09-12T11:59:13;5.03;;;2.90;;
1925;SDS011;964;42.606;23.588;2023-09-12T12:01:40;4.25;;;2.60;;
1925;SDS011;964;42.606;23.588;2023-09-12T12:04:06;3.38;;;3.08;;
1925;SDS011;964;42.606;23.588;2023-09-12T12:06:33;3.40;;;3.10;;
1925;SDS011;964;42.606;23.588;2023-09-12T12:09:00;3.35;;;2.53;;
1925;SDS011;964;42.606;23.588;2023-09-12T12:11:30;11.43;;;2.80;;
1925;SDS011;964;42.606;23.588;2023-09-12T12:13:58;3.33;;;2.85;;
1925;SDS011;964;42.606;23.588;2023-09-12T12:16:35;3.92;;;2.38;;
1925;SDS011;964;42.606;23.588;2023-09-12T12:19:02;8.70;;;3.63;;
1925;SDS011;964;42.606;23.588;2023-09-12T12:21:29;8.82;;;3.00;;
1925;SDS011;964;42.606;23.588;2023-09-12T12:23:59;7.03;;;2.47;;
1925;SDS011;964;42.606;23.588;2023-09-12T12:26:26;3.28;;;2.50;;
1925;SDS011;964;42.606;23.588;2023-09-12T12:28:54;2.60;;;2.40;;
1925;SDS011;964;42.606;23.588;2023-09-12T12:31:21;3.22;;;2.10;;
1925;SDS011;964;42.606;23.588;2023-09-12T12:33:49;4.25;;;2.10;;
1925;SDS011;964;42.606;23.588;2023-09-12T12:36:16;3.72;;;2.60;;
1925;SDS011;964;42.606;23.588;2023-09-12T12:38:43;2.38;;;2.17;;
1925;SDS011;964;42.606;23.588;2023-09-12T12:41:12;5.53;;;2.38;;
1925;SDS011;964;42.606;23.588;2023-09-12T12:43:40;2.70;;;2.40;;
1925;SDS011;964;42.606;23.588;2023-09-12T12:46:09;4.78;;;2.78;;
1925;SDS011;964;42.606;23.588;2023-09-12T12:48:38;2.97;;;2.78;;
1925;SDS011;964;42.606;23.588;2023-09-12T12:51:13;3.35;;;2.40;;
1925;SDS011;964;42.606;23.588;2023-09-12T12:53:42;3.35;;;2.40;;
1925;SDS011;964;42.606;23.588;2023-09-12T12:56:11;2.60;;;2.40;;
1925;SDS011;964;42.606;23.588;2023-09-12T12:58:44;3.42;;;2.80;;
1925;SDS011;964;42.606;23.588;2023-09-12T13:01:13;2.95;;;2.58;;
1925;SDS011;964;42.606;23.588;2023-09-12T13:03:40;2.35;;;2.15;;
1925;SDS011;964;42.606;23.588;2023-09-12T13:06:07;4.35;;;2.92;;
1925;SDS011;964;42.606;23.588;2023-09-12T13:08:38;2.83;;;2.30;;
1925;SDS011;964;42.606;23.588;2023-09-12T13:11:05;5.28;;;2.42;;
1925;SDS011;964;42.606;23.588;2023-09-12T13:13:32;3.80;;;2.42;;
1925;SDS011;964;42.606;23.588;2023-09-12T13:15:58;6.18;;;2.88;;
1925;SDS011;964;42.606;23.588;2023-09-12T13:18:27;3.33;;;2.42;;
1925;SDS011;964;42.606;23.588;2023-09-12T13:20:53;3.22;;;2.70;;
1925;SDS011;964;42.606;23.588;2023-09-12T13:23:21;4.97;;;3.10;;
1925;SDS011;964;42.606;23.588;2023-09-12T13:25:49;7.05;;;2.97;;
1925;SDS011;964;42.606;23.588;2023-09-12T13:28:16;4.68;;;2.78;;
1925;SDS011;964;42.606;23.588;2023-09-12T13:30:42;4.05;;;2.63;;
1925;SDS011;964;42.606;23.588;2023-09-12T13:33:09;4.50;;;2.75;;
1925;SDS011;964;42.606;23.588;2023-09-12T13:35:38;4.05;;;2.90;;
1925;SDS011;964;42.606;23.588;2023-09-12T13:38:05;3.00;;;2.40;;
1925;SDS011;964;42.606;23.588;2023-09-12T13:40:35;8.68;;;4.10;;
1925;SDS011;964;42.606;23.588;2023-09-12T13:43:02;3.83;;;3.00;;
1925;SDS011;964;42.606;23.588;2023-09-12T13:45:29;3.35;;;2.55;;
1925;SDS011;964;42.606;23.588;2023-09-12T13:47:56;2.60;;;2.40;;
1925;SDS011;964;42.606;23.588;2023-09-12T13:50:23;3.40;;;2.47;;
1925;SDS011;964;42.606;23.588;2023-09-12T13:52:51;6.22;;;2.53;;
1925;SDS011;964;42.606;23.588;2023-09-12T13:55:19;2.67;;;2.47;;
1925;SDS011;964;42.606;23.588;2023-09-12T13:57:45;4.13;;;2.60;;
1925;SDS011;964;42.606;23.588;2023-09-12T14:00:12;3.00;;;2.45;;
1925;SDS011;964;42.606;23.588;2023-09-12T14:02:39;3.92;;;2.75;;
1925;SDS011;964;42.606;23.588;2023-09-12T14:05:06;3.92;;;2.80;;
1925;SDS011;964;42.606;23.588;2023-09-12T14:07:33;3.38;;;2.58;;
1925;SDS011;964;42.606;23.588;2023-09-12T14:10:01;3.53;;;2.55;;
1925;SDS011;964;42.606;23.588;2023-09-12T14:12:28;4.22;;;2.60;;
1925;SDS011;964;42.606;23.588;2023-09-12T14:14:55;3.08;;;2.78;;
1925;SDS011;964;42.606;23.588;2023-09-12T14:17:21;5.10;;;2.90;;
1925;SDS011;964;42.606;23.588;2023-09-12T14:19:48;3.45;;;2.75;;
1925;SDS011;964;42.606;23.588;2023-09-12T14:22:14;3.42;;;3.10;;
1925;SDS011;964;42.606;23.588;2023-09-12T14:24:41;5.57;;;3.38;;
1925;SDS011;964;42.606;23.588;2023-09-12T14:27:09;3.47;;;2.70;;
1925;SDS011;964;42.606;23.588;2023-09-12T14:29:36;7.25;;;2.55;;
1925;SDS011;964;42.606;23.588;2023-09-12T14:32:02;2.72;;;2.28;;
1925;SDS011;964;42.606;23.588;2023-09-12T14:34:29;4.65;;;2.60;;
1925;SDS011;964;42.606;23.588;2023-09-12T14:36:58;2.72;;;2.42;;
1925;SDS011;964;42.606;23.588;2023-09-12T14:39:24;4.95;;;3.50;;
1925;SDS011;964;42.606;23.588;2023-09-12T14:41:52;3.05;;;2.75;;
1925;SDS011;964;42.606;23.588;2023-09-12T14:44:21;3.85;;;2.90;;
1925;SDS011;964;42.606;23.588;2023-09-12T14:46:48;3.65;;;2.95;;
1925;SDS011;964;42.606;23.588;2023-09-12T14:49:15;3.63;;;2.95;;
1925;SDS011;964;42.606;23.588;2023-09-12T14:51:41;2.70;;;2.50;;
1925;SDS011;964;42.606;23.588;2023-09-12T14:54:08;5.03;;;2.53;;
1925;SDS011;964;42.606;23.588;2023-09-12T14:56:35;4.55;;;3.10;;
1925;SDS011;964;42.606;23.588;2023-09-12T14:59:03;4.75;;;2.50;;
1925;SDS011;964;42.606;23.588;2023-09-12T15:01:32;6.68;;;3.10;;
1925;SDS011;964;42.606;23.588;2023-09-12T15:04:00;6.88;;;2.95;;
1925;SDS011;964;42.606;23.588;2023-09-12T15:06:27;3.63;;;2.45;;
1925;SDS011;964;42.606;23.588;2023-09-12T15:08:57;6.53;;;3.30;;
1925;SDS011;964;42.606;23.588;2023-09-12T15:11:24;3.15;;;2.63;;
1925;SDS011;964;42.606;23.588;2023-09-12T15:13:51;3.28;;;2.65;;
1925;SDS011;964;42.606;23.588;2023-09-12T15:16:17;5.07;;;2.92;;
1925;SDS011;964;42.606;23.588;2023-09-12T15:18:46;8.70;;;2.90;;
1925;SDS011;964;42.606;23.588;2023-09-12T15:21:12;4.97;;;3.20;;
1925;SDS011;964;42.606;23.588;2023-09-12T15:23:39;3.13;;;2.73;;
1925;SDS011;964;42.606;23.588;2023-09-12T15:26:06;4.67;;;3.53;;